Time;durP1;ratioP1;P1;durP2;ratioP2;P2;SDS_P1;SDS_P2;PMS_P1;PMS_P2;Temp;Humidity;BMP_temperature;BMP_pressure;BME280_temperature;BME280_humidity;BME280_pressure;Samples;Min_cycle;Max_cycle;Signal;HPM_P1;HPM_P2
2022/05/19 00:01:04;;;;;;;8.75;3.08;;;6.30;99.90;;;;;;5035794;28;20041;-76
2022/05/19 00:03:33;;;;;;;6.13;3.00;;;6.30;99.90;;;;;;5052831;28;20063;-76
2022/05/19 00:06:01;;;;;;;6.63;2.70;;;6.20;99.90;;;;;;5053300;28;20091;-75
2022/05/19 00:08:29;;;;;;;6.45;3.05;;;6.20;99.90;;;;;;5053182;28;20041;-75
2022/05/19 00:11:00;;;;;;;6.25;2.58;;;6.10;99.90;;;;;;5053214;28;20045;-76
2022/05/19 00:13:30;;;;;;;10.35;3.05;;;6.10;99.90;;;;;;5052929;28;20041;-75
2022/05/19 00:15:58;;;;;;;7.97;3.00;;;6.10;99.90;;;;;;5051755;28;20057;-76
2022/05/19 00:18:25;;;;;;;5.28;2.60;;;6.10;99.90;;;;;;5041621;28;20055;-76
2022/05/19 00:20:53;;;;;;;8.60;3.33;;;6.10;99.90;;;;;;5060405;28;20063;-75
2022/05/19 00:23:21;;;;;;;9.90;3.17;;;6.10;99.90;;;;;;5036266;28;20041;-75
2022/05/19 00:25:48;;;;;;;6.20;2.50;;;6.10;99.90;;;;;;5053576;28;20132;-75
2022/05/19 00:28:16;;;;;;;8.57;2.72;;;6.00;99.90;;;;;;5054937;28;20467;-76
2022/05/19 00:30:45;;;;;;;5.35;2.70;;;6.00;99.90;;;;;;5035993;28;20488;-75
2022/05/19 00:33:14;;;;;;;6.13;2.78;;;6.10;99.90;;;;;;5052939;28;20065;-75
2022/05/19 00:35:42;;;;;;;5.47;2.53;;;6.00;99.90;;;;;;5054396;28;20044;-75
2022/05/19 00:38:10;;;;;;;26.25;13.45;;;5.90;99.90;;;;;;5053470;28;20103;-74
2022/05/19 00:40:38;;;;;;;8.48;3.92;;;5.90;99.90;;;;;;5035635;28;20053;-75
2022/05/19 00:43:07;;;;;;;10.85;3.05;;;5.80;99.90;;;;;;5053097;28;20037;-75
2022/05/19 00:45:43;;;;;;;8.40;2.95;;;5.80;99.90;;;;;;5053387;28;20099;-75
2022/05/19 00:48:17;;;;;;;;;;;5.80;99.90;;;;;;5053210;28;20041;-76
2022/05/19 00:50:48;;;;;;;6.82;2.70;;;5.80;99.90;;;;;;5052875;28;19921;-74
2022/05/19 00:53:28;;;;;;;5.00;2.60;;;5.80;99.90;;;;;;5036425;28;20128;-75
2022/05/19 00:55:58;;;;;;;7.22;2.58;;;5.60;99.90;;;;;;5056536;28;20123;-75
2022/05/19 00:58:31;;;;;;;9.52;2.88;;;5.60;99.90;;;;;;5038709;28;20099;-75
2022/05/19 01:00:59;;;;;;;6.18;2.90;;;5.60;99.90;;;;;;5038240;28;20057;-75
2022/05/19 01:03:34;;;;;;;5.13;2.72;;;5.60;99.90;;;;;;5054647;28;20128;-74
2022/05/19 01:06:09;;;;;;;6.85;3.03;;;5.50;99.90;;;;;;5038724;28;20057;-75
2022/05/19 01:08:40;;;;;;;7.50;2.75;;;5.50;99.90;;;;;;5055143;28;20051;-75
2022/05/19 01:11:10;;;;;;;7.93;2.15;;;5.50;99.90;;;;;;5056285;28;20129;-75
2022/05/19 01:13:38;;;;;;;7.72;2.40;;;5.50;99.90;;;;;;5055938;28;20060;-75
2022/05/19 01:16:07;;;;;;;6.63;2.60;;;5.50;99.90;;;;;;5056049;28;20496;-75
2022/05/19 01:18:37;;;;;;;6.18;2.53;;;5.50;99.90;;;;;;5056099;28;20048;-75
2022/05/19 01:21:07;;;;;;;7.65;2.38;;;5.50;99.90;;;;;;5055642;28;20037;-76
2022/05/19 01:23:46;;;;;;;6.63;2.40;;;5.50;99.90;;;;;;5037277;28;20072;-76
2022/05/19 01:26:24;;;;;;;6.80;2.47;;;5.40;99.90;;;;;;5037557;28;20077;-75
2022/05/19 01:28:53;;;;;;;4.53;2.35;;;5.40;99.90;;;;;;5055863;28;20045;-76
2022/05/19 01:31:32;;;;;;;7.97;2.55;;;5.40;99.90;;;;;;5055548;28;20044;-74
2022/05/19 01:34:02;;;;;;;6.72;2.50;;;5.40;99.90;;;;;;5054169;28;20037;-77
2022/05/19 01:36:29;;;;;;;6.35;2.70;;;5.30;99.90;;;;;;5054162;28;20056;-76
2022/05/19 01:39:01;;;;;;;5.63;2.53;;;5.30;99.90;;;;;;5037619;28;20159;-75
2022/05/19 01:42:13;;;;;;;8.65;2.50;;;5.20;99.90;;;;;;5054838;28;20386;-75
2022/05/19 01:44:53;;;;;;;7.10;2.75;;;5.20;99.90;;;;;;5053907;28;20059;-75
2022/05/19 01:47:30;;;;;;;5.07;2.30;;;5.20;99.90;;;;;;5055098;28;20124;-76
2022/05/19 01:50:04;;;;;;;8.45;2.88;;;5.10;99.90;;;;;;5037040;28;20041;-76
2022/05/19 01:52:36;;;;;;;9.82;2.47;;;5.00;99.90;;;;;;5054867;28;20484;-75
2022/05/19 01:55:10;;;;;;;5.70;2.53;;;5.00;99.90;;;;;;5055042;28;20536;-75
2022/05/19 01:57:43;;;;;;;5.65;2.83;;;5.00;99.90;;;;;;5037301;28;20443;-76
2022/05/19 02:00:16;;;;;;;7.28;2.25;;;5.00;99.90;;;;;;5037485;28;20131;-75
2022/05/19 02:02:52;;;;;;;8.02;2.50;;;5.00;99.90;;;;;;5055009;28;20130;-75
2022/05/19 02:05:31;;;;;;;4.47;2.33;;;5.00;99.90;;;;;;5053639;28;20045;-75
2022/05/19 02:08:03;;;;;;;8.60;2.33;;;4.90;99.90;;;;;;5054887;28;20132;-75
2022/05/19 02:10:36;;;;;;;4.75;2.40;;;4.90;99.90;;;;;;5054975;28;20056;-77
2022/05/19 02:13:05;;;;;;;12.07;2.63;;;4.90;99.90;;;;;;5054522;28;20500;-77
2022/05/19 02:15:39;;;;;;;8.02;3.00;;;4.80;99.90;;;;;;5054557;28;20108;-77
2022/05/19 02:18:07;;;;;;;7.65;2.25;;;4.80;99.90;;;;;;5055148;28;20071;-78
2022/05/19 02:20:36;;;;;;;5.20;2.13;;;4.80;99.90;;;;;;5054756;28;20500;-77
2022/05/19 02:23:05;;;;;;;3.70;1.98;;;4.80;99.90;;;;;;5054570;28;20502;-77
2022/05/19 02:25:36;;;;;;;7.22;2.20;;;4.70;99.90;;;;;;5054321;28;20061;-77
2022/05/19 02:28:08;;;;;;;7.03;2.70;;;4.70;99.90;;;;;;5037053;28;20045;-77
2022/05/19 02:30:39;;;;;;;6.95;2.38;;;4.70;99.90;;;;;;5055374;28;20045;-78
2022/05/19 02:33:07;;;;;;;5.72;2.78;;;4.70;99.90;;;;;;5058328;28;20080;-77
2022/05/19 02:35:35;;;;;;;5.00;2.22;;;4.70;99.90;;;;;;5044491;28;20075;-76
2022/05/19 02:38:03;;;;;;;7.22;3.00;;;4.70;99.90;;;;;;5059205;28;20045;-77
2022/05/19 02:40:34;;;;;;;7.05;2.55;;;4.70;99.90;;;;;;5036687;28;20056;-77
2022/05/19 02:43:03;;;;;;;4.07;2.45;;;4.70;99.90;;;;;;5053458;28;20121;-77
2022/05/19 02:45:31;;;;;;;4.82;2.58;;;4.70;99.90;;;;;;5053416;28;20132;-77
2022/05/19 02:48:00;;;;;;;5.80;2.50;;;4.60;99.90;;;;;;5036821;28;20076;-77
2022/05/19 02:50:29;;;;;;;8.27;2.90;;;4.60;99.90;;;;;;5054746;28;20049;-77
2022/05/19 02:52:57;;;;;;;7.72;2.67;;;4.60;99.90;;;;;;5054245;28;20045;-77
2022/05/19 02:55:24;;;;;;;7.28;2.55;;;4.60;99.90;;;;;;5054122;28;20136;-76
2022/05/19 02:57:52;;;;;;;6.57;2.17;;;4.50;99.90;;;;;;5036469;28;20059;-77
2022/05/19 03:00:25;;;;;;;4.18;2.20;;;4.50;99.90;;;;;;5054413;28;20483;-77
2022/05/19 03:02:54;;;;;;;6.90;2.55;;;4.50;99.90;;;;;;5053638;28;20784;-77
2022/05/19 03:05:26;;;;;;;4.95;2.20;;;4.50;99.90;;;;;;5053924;28;20047;-74
2022/05/19 03:07:55;;;;;;;7.93;2.50;;;4.40;99.90;;;;;;5054033;28;20067;-75
2022/05/19 03:10:23;;;;;;;6.10;2.30;;;4.40;99.90;;;;;;5054234;28;20049;-76
2022/05/19 03:12:51;;;;;;;3.70;1.98;;;4.40;99.90;;;;;;5053744;28;20052;-76
2022/05/19 03:15:18;;;;;;;5.88;2.35;;;4.40;99.90;;;;;;5052794;28;20037;-78
2022/05/19 03:17:46;;;;;;;8.30;2.40;;;4.40;99.90;;;;;;5054842;28;20045;-80
2022/05/19 03:20:14;;;;;;;7.30;1.95;;;4.40;99.90;;;;;;5056554;28;20044;-78
2022/05/19 03:22:43;;;;;;;5.47;1.83;;;4.40;99.90;;;;;;5060285;28;20383;-77
2022/05/19 03:25:11;;;;;;;3.92;1.80;;;4.30;99.90;;;;;;5045556;28;20041;-76
2022/05/19 03:27:39;;;;;;;6.03;2.10;;;4.40;99.90;;;;;;5059461;28;20053;-77
2022/05/19 03:30:11;;;;;;;8.75;2.33;;;4.40;99.90;;;;;;5054627;28;20075;-77
2022/05/19 03:32:39;;;;;;;6.22;2.20;;;4.40;99.90;;;;;;5054069;28;20049;-77
2022/05/19 03:35:07;;;;;;;6.00;2.17;;;4.40;99.90;;;;;;5054210;28;20041;-76
2022/05/19 03:37:34;;;;;;;7.55;3.70;;;4.40;99.90;;;;;;5054751;28;20048;-77
2022/05/19 03:40:04;;;;;;;11.82;4.88;;;4.40;99.90;;;;;;5054088;28;20504;-76
2022/05/19 03:42:32;;;;;;;12.65;6.18;;;4.40;99.90;;;;;;5054224;28;20044;-77
2022/05/19 03:44:59;;;;;;;8.85;5.63;;;4.50;99.90;;;;;;5054155;28;20040;-76
2022/05/19 03:47:27;;;;;;;8.50;4.65;;;4.50;99.90;;;;;;5036212;28;20067;-77
2022/05/19 03:49:55;;;;;;;7.60;3.47;;;4.70;99.90;;;;;;5057708;28;20044;-76
2022/05/19 03:52:22;;;;;;;7.93;3.38;;;5.30;99.90;;;;;;5055221;28;20401;-77
2022/05/19 03:54:51;;;;;;;7.07;3.47;;;6.10;99.90;;;;;;5053854;28;20037;-77
2022/05/19 03:57:21;;;;;;;6.85;3.50;;;7.00;1.00;;;;;;5054403;28;20041;-77
2022/05/19 03:59:48;;;;;;;8.70;3.40;;;7.70;1.00;;;;;;5053797;28;20098;-77
2022/05/19 04:02:16;;;;;;;10.30;3.13;;;8.40;99.90;;;;;;5035286;28;20071;-77
2022/05/19 04:04:43;;;;;;;6.47;3.25;;;8.80;99.90;;;;;;5052981;28;20037;-76
2022/05/19 04:07:11;;;;;;;6.80;3.13;;;9.20;1.00;;;;;;5035835;28;20411;-76
2022/05/19 04:09:39;;;;;;;9.55;3.47;;;9.60;1.00;;;;;;5035000;28;20057;-76
2022/05/19 04:12:07;;;;;;;7.75;3.53;;;9.80;1.00;;;;;;5053155;28;20041;-77
2022/05/19 04:14:36;;;;;;;8.43;3.17;;;10.10;99.90;;;;;;5053501;28;20052;-76
2022/05/19 04:17:04;;;;;;;8.57;2.67;;;10.30;1.00;;;;;;5035607;28;20690;-77
2022/05/19 04:19:32;;;;;;;15.90;2.92;;;10.90;1.00;;;;;;5041661;28;20097;-79
2022/05/19 04:22:01;;;;;;;8.77;2.42;;;10.90;99.90;;;;;;5036147;28;20045;-76
2022/05/19 04:24:29;;;;;;;7.20;2.40;;;11.60;99.90;;;;;;5054082;28;20590;-79
2022/05/19 04:26:57;;;;;;;6.03;2.90;;;12.10;99.90;;;;;;5051121;28;20045;-79
2022/05/19 04:29:25;;;;;;;5.85;2.55;;;12.80;37.60;;;;;;5052587;28;20037;-80
2022/05/19 04:31:54;;;;;;;5.75;2.40;;;13.40;1.00;;;;;;5037496;28;20045;-77
2022/05/19 04:34:21;;;;;;;5.53;2.53;;;13.90;1.00;;;;;;5055329;28;20057;-76
2022/05/19 04:36:48;;;;;;;7.60;2.30;;;14.20;1.00;;;;;;5056325;28;20129;-77
2022/05/19 04:39:16;;;;;;;5.38;2.50;;;14.10;1.00;;;;;;5057048;28;20102;-77
2022/05/19 04:41:43;;;;;;;7.07;2.33;;;14.40;1.00;;;;;;5056845;28;20037;-76
2022/05/19 04:44:11;;;;;;;7.03;2.72;;;14.50;1.00;;;;;;5056482;28;20052;-78
2022/05/19 04:46:38;;;;;;;9.60;3.45;;;14.80;1.00;;;;;;5057602;28;20068;-77
2022/05/19 04:49:08;;;;;;;10.32;2.75;;;15.20;1.00;;;;;;5057366;28;20048;-78
2022/05/19 04:51:36;;;;;;;6.38;2.95;;;14.90;1.00;;;;;;5055578;28;20389;-78
2022/05/19 04:54:03;;;;;;;11.15;3.20;;;13.90;1.00;;;;;;5057341;28;20044;-79
2022/05/19 04:56:33;;;;;;;11.05;3.30;;;12.90;1.00;;;;;;5057246;28;20408;-78
2022/05/19 04:59:00;;;;;;;9.52;2.92;;;12.40;1.00;;;;;;5057810;28;20492;-78
2022/05/19 05:01:28;;;;;;;9.82;3.63;;;12.20;1.00;;;;;;5055804;28;20057;-78
2022/05/19 05:03:55;;;;;;;8.35;2.58;;;11.80;1.00;;;;;;5056924;28;20041;-77
2022/05/19 05:06:24;;;;;;;6.35;2.42;;;12.30;1.00;;;;;;5054703;28;20508;-78
2022/05/19 05:08:51;;;;;;;8.38;2.30;;;13.50;1.00;;;;;;5057426;28;20049;-76
2022/05/19 05:11:19;;;;;;;19.77;3.20;;;14.50;1.00;;;;;;5056696;28;20095;-77
2022/05/19 05:13:46;;;;;;;6.95;2.33;;;15.40;1.00;;;;;;5038869;28;20099;-78
2022/05/19 05:16:14;;;;;;;7.03;2.50;;;16.00;1.00;;;;;;5057023;28;20045;-77
2022/05/19 05:18:41;;;;;;;6.43;2.90;;;16.70;1.00;;;;;;5057426;28;20076;-77
2022/05/19 05:21:11;;;;;;;6.97;2.83;;;16.90;1.00;;;;;;5057451;28;20044;-79
2022/05/19 05:23:40;;;;;;;4.75;2.13;;;16.60;1.00;;;;;;5057997;28;20041;-78
2022/05/19 05:26:08;;;;;;;4.53;2.53;;;16.10;1.00;;;;;;5057367;28;20049;-78
2022/05/19 05:28:37;;;;;;;9.20;3.10;;;15.90;1.00;;;;;;5057457;28;20069;-79
2022/05/19 05:31:04;;;;;;;7.13;3.00;;;15.90;1.00;;;;;;5058943;28;20075;-77
2022/05/19 05:33:32;;;;;;;5.70;2.90;;;16.40;1.00;;;;;;5043752;28;20045;-79
2022/05/19 05:35:59;;;;;;;8.57;3.83;;;16.80;1.00;;;;;;5042096;28;20037;-80
2022/05/19 05:38:27;;;;;;;8.38;3.45;;;17.20;1.00;;;;;;5058120;28;20445;-82
2022/05/19 05:40:56;;;;;;;7.35;3.40;;;17.40;1.00;;;;;;5057653;28;20044;-81
2022/05/19 05:43:23;;;;;;;12.82;3.33;;;17.10;1.00;;;;;;5057388;28;20037;-79
2022/05/19 05:45:52;;;;;;;9.00;3.78;;;16.40;1.00;;;;;;5039065;28;20048;-81
2022/05/19 05:48:20;;;;;;;9.85;3.85;;;15.80;1.00;;;;;;5056898;28;20048;-79
2022/05/19 05:50:47;;;;;;;10.02;2.97;;;15.50;1.00;;;;;;5057255;28;20045;-81
2022/05/19 05:53:15;;;;;;;8.82;3.38;;;15.20;1.00;;;;;;5039056;28;20500;-79
2022/05/19 05:55:42;;;;;;;7.82;3.05;;;15.30;1.00;;;;;;5038910;28;20040;-78
2022/05/19 05:58:12;;;;;;;11.57;4.13;;;15.50;1.00;;;;;;5056442;28;20051;-79
2022/05/19 06:00:42;;;;;;;10.27;4.25;;;15.70;1.00;;;;;;5056245;28;20048;-79
2022/05/19 06:03:09;;;;;;;9.55;4.40;;;16.00;1.00;;;;;;5056307;28;20045;-80
2022/05/19 06:05:37;;;;;;;10.95;3.50;;;15.90;1.00;;;;;;5056014;28;20037;-76
2022/05/19 06:08:05;;;;;;;9.80;4.25;;;16.00;1.00;;;;;;5055226;28;20119;-77
2022/05/19 06:10:34;;;;;;;8.10;3.45;;;16.30;1.00;;;;;;5053485;28;20044;-77
2022/05/19 06:13:01;;;;;;;15.90;4.43;;;16.50;1.00;;;;;;5054095;28;20068;-77
2022/05/19 06:15:30;;;;;;;9.48;3.45;;;16.50;1.00;;;;;;5054682;28;20053;-77
2022/05/19 06:17:58;;;;;;;14.63;3.78;;;16.30;1.00;;;;;;5074709;28;20536;-77
2022/05/19 06:20:26;;;;;;;9.75;3.65;;;16.30;1.00;;;;;;5077597;28;20103;-77
2022/05/19 06:22:53;;;;;;;11.02;4.35;;;16.60;1.00;;;;;;5077323;28;20029;-77
2022/05/19 06:25:24;;;;;;;10.77;5.50;;;16.70;1.00;;;;;;5077930;28;20112;-77
2022/05/19 06:27:52;;;;;;;10.20;4.20;;;16.80;1.00;;;;;;5078400;28;20049;-75
2022/05/19 06:30:22;;;;;;;10.25;4.50;;;16.90;1.00;;;;;;5067083;28;20054;-77
2022/05/19 06:32:52;;;;;;;10.77;4.15;;;17.00;1.00;;;;;;5056271;28;20127;-77
2022/05/19 06:35:23;;;;;;;9.35;4.90;;;17.10;1.00;;;;;;5055341;28;20566;-77
2022/05/19 06:37:51;;;;;;;11.85;5.20;;;17.40;1.00;;;;;;5059608;28;20049;-76
2022/05/19 06:40:19;;;;;;;10.43;5.50;;;17.40;1.00;;;;;;5052131;28;20057;-76
2022/05/19 06:42:47;;;;;;;8.23;5.05;;;17.00;1.00;;;;;;5064619;28;20143;-76
2022/05/19 06:45:17;;;;;;;11.55;4.57;;;16.90;1.00;;;;;;5060653;28;20033;-76
2022/05/19 06:47:47;;;;;;;11.82;4.55;;;16.90;1.00;;;;;;5040187;28;20136;-76
2022/05/19 06:50:16;;;;;;;10.77;5.22;;;16.90;1.00;;;;;;5057357;28;20033;-75
2022/05/19 06:52:46;;;;;;;9.80;4.75;;;16.70;1.00;;;;;;5055998;28;20045;-76
2022/05/19 06:55:15;;;;;;;7.55;4.20;;;16.90;1.00;;;;;;5040820;28;20389;-76
2022/05/19 06:57:43;;;;;;;17.40;5.28;;;17.10;1.00;;;;;;5060038;28;20053;-75
2022/05/19 07:00:16;;;;;;;11.30;4.85;;;17.40;1.00;;;;;;5059543;28;20115;-76
2022/05/19 07:02:44;;;;;;;14.35;6.70;;;17.60;1.00;;;;;;5060703;28;20068;-77
2022/05/19 07:05:12;;;;;;;13.77;6.00;;;17.80;1.00;;;;;;5060127;28;20047;-76
2022/05/19 07:07:41;;;;;;;11.95;5.18;;;17.80;1.00;;;;;;5067436;28;20104;-76
2022/05/19 07:10:10;;;;;;;16.30;5.65;;;17.70;1.00;;;;;;5070896;28;20049;-75
2022/05/19 07:12:38;;;;;;;15.48;6.45;;;18.00;1.00;;;;;;5071153;28;20076;-77
2022/05/19 07:15:07;;;;;;;15.13;5.78;;;18.40;1.00;;;;;;5062806;28;20041;-75
2022/05/19 07:17:34;;;;;;;14.20;5.35;;;18.50;1.00;;;;;;5056790;28;20059;-76
2022/05/19 07:22:47;;;;;;;13.73;4.70;;;19.10;1.00;;;;;;5055979;28;20045;-75
2022/05/19 07:25:15;;;;;;;10.23;4.47;;;18.90;1.00;;;;;;5058904;28;20061;-77
2022/05/19 07:27:43;;;;;;;10.15;5.15;;;18.90;1.00;;;;;;5062999;28;20051;-76
2022/05/19 07:30:11;;;;;;;11.20;4.18;;;18.70;1.00;;;;;;5060014;28;20044;-76
2022/05/19 07:32:39;;;;;;;12.20;3.63;;;18.70;1.00;;;;;;5057350;28;20048;-75
2022/05/19 07:35:09;;;;;;;10.00;3.08;;;18.40;1.00;;;;;;5055164;28;20083;-76
2022/05/19 07:37:37;;;;;;;11.88;3.70;;;18.30;1.00;;;;;;5037221;28;20049;-77
2022/05/19 07:40:07;;;;;;;9.35;4.32;;;18.40;1.00;;;;;;5054846;28;20137;-75
2022/05/19 07:42:35;;;;;;;12.55;4.30;;;18.60;1.00;;;;;;5054045;28;20041;-75
2022/05/19 07:45:03;;;;;;;9.68;3.22;;;19.00;1.00;;;;;;5054448;28;20049;-76
2022/05/19 07:47:30;;;;;;;9.43;4.10;;;19.10;1.00;;;;;;5054363;28;20041;-76
2022/05/19 07:49:58;;;;;;;11.60;6.90;;;19.40;1.00;;;;;;5054340;28;20049;-76
2022/05/19 07:52:26;;;;;;;14.05;5.50;;;19.70;1.00;;;;;;5054775;28;20117;-76
2022/05/19 07:54:55;;;;;;;16.25;3.80;;;19.90;1.00;;;;;;5053752;28;20037;-76
2022/05/19 07:57:24;;;;;;;8.05;2.83;;;20.00;1.00;;;;;;5053709;28;20056;-75
2022/05/19 07:59:51;;;;;;;6.88;2.55;;;20.10;1.00;;;;;;5054039;28;20060;-76
2022/05/19 08:02:20;;;;;;;13.07;2.72;;;19.90;1.00;;;;;;5055458;28;20420;-76
2022/05/19 08:04:47;;;;;;;8.32;3.42;;;19.60;1.00;;;;;;5057809;28;20572;-76
2022/05/19 08:07:15;;;;;;;5.10;2.15;;;19.50;1.00;;;;;;5057889;28;20060;-75
2022/05/19 08:18:02;;;;;;;3.85;2.05;;;19.60;1.00;;;;;;5058229;28;20044;-77
2022/05/19 08:20:29;;;;;;;5.80;2.33;;;19.50;1.00;;;;;;5057902;28;20446;-76
2022/05/19 08:22:57;;;;;;;6.18;1.70;;;19.70;1.00;;;;;;5057561;28;20504;-76
2022/05/19 08:25:25;;;;;;;6.78;1.92;;;19.70;1.00;;;;;;5032436;28;20069;-76
2022/05/19 08:27:55;;;;;;;12.68;2.25;;;19.50;1.00;;;;;;5017018;28;20073;-76
2022/05/19 08:30:23;;;;;;;6.07;1.80;;;19.70;1.00;;;;;;5017773;28;20056;-76
2022/05/19 08:32:50;;;;;;;5.80;2.30;;;20.00;1.00;;;;;;5018064;28;20053;-76
2022/05/19 08:35:18;;;;;;;7.32;2.50;;;20.20;1.00;;;;;;5016529;28;20046;-76
2022/05/19 08:37:46;;;;;;;5.57;1.70;;;20.50;1.00;;;;;;5016064;28;20421;-75
2022/05/19 08:40:13;;;;;;;9.55;2.45;;;20.60;1.00;;;;;;5017231;28;20049;-76
2022/05/19 08:42:48;;;;;;;6.47;2.42;;;20.60;1.00;;;;;;5017009;28;20401;-76
2022/05/19 08:45:22;;;;;;;12.02;2.35;;;20.30;1.00;;;;;;5016835;28;20038;-76
2022/05/19 08:47:55;;;;;;;12.23;2.88;;;20.40;1.00;;;;;;5017043;28;20061;-77
2022/05/19 08:50:30;;;;;;;4.47;2.10;;;20.40;1.00;;;;;;5017054;28;20038;-75
2022/05/19 08:52:58;;;;;;;6.32;1.70;;;20.40;1.00;;;;;;5016564;28;20437;-76
2022/05/19 08:55:26;;;;;;;7.28;1.73;;;20.70;1.00;;;;;;5015635;28;20038;-76
2022/05/19 08:58:03;;;;;;;6.03;2.03;;;20.80;1.00;;;;;;5016023;28;20046;-75
2022/05/19 09:00:38;;;;;;;7.28;1.30;;;21.00;1.00;;;;;;5017445;28;20042;-77
2022/05/19 09:03:20;;;;;;;4.45;2.38;;;21.00;1.00;;;;;;5017288;28;20137;-76
2022/05/19 09:06:09;;;;;;;4.10;2.15;;;21.00;1.00;;;;;;5016703;28;20096;-76
2022/05/19 09:08:46;;;;;;;5.20;1.50;;;21.00;1.00;;;;;;5017125;28;20038;-76
2022/05/19 09:11:18;;;;;;;6.43;1.60;;;20.90;1.00;;;;;;5016425;28;20057;-76
2022/05/19 09:13:53;;;;;;;3.95;1.35;;;21.00;1.00;;;;;;5015674;28;20042;-76
2022/05/19 09:16:26;;;;;;;5.68;2.15;;;21.20;1.00;;;;;;5016211;28;20060;-76
2022/05/19 09:18:59;;;;;;;5.85;1.90;;;21.20;1.00;;;;;;5016426;28;20049;-76
2022/05/19 09:21:27;;;;;;;2.90;1.92;;;21.30;1.00;;;;;;5014933;28;20073;-76
2022/05/19 09:23:55;;;;;;;3.63;1.98;;;21.40;1.00;;;;;;5015895;28;20379;-76
2022/05/19 09:26:46;;;;;;;7.57;2.20;;;21.40;1.00;;;;;;5040437;28;20511;-76
2022/05/19 09:29:16;;;;;;;6.65;2.45;;;21.50;1.00;;;;;;5039175;28;20053;-76
2022/05/19 09:31:50;;;;;;;4.50;1.83;;;21.50;1.00;;;;;;5056884;28;20041;-75
2022/05/19 09:34:19;;;;;;;5.20;1.90;;;21.60;1.00;;;;;;5056142;28;20045;-78
2022/05/19 09:37:01;;;;;;;5.68;2.42;;;21.70;1.00;;;;;;5055657;28;20041;-76
2022/05/19 09:39:35;;;;;;;7.15;1.90;;;22.00;1.00;;;;;;5055492;28;20072;-76
2022/05/19 09:42:08;;;;;;;5.70;2.88;;;22.00;1.00;;;;;;5037841;28;20512;-77
2022/05/19 09:44:43;;;;;;;5.07;2.05;;;21.90;1.00;;;;;;5055950;28;20099;-77
2022/05/19 09:47:25;;;;;;;4.43;1.30;;;21.60;1.00;;;;;;5037926;28;20065;-76
2022/05/19 09:50:01;;;;;;;3.55;2.25;;;21.70;1.00;;;;;;5055981;28;20456;-75
2022/05/19 09:52:32;;;;;;;3.88;1.35;;;21.80;1.00;;;;;;5055957;28;20037;-75
2022/05/19 09:55:05;;;;;;;8.68;3.72;;;21.70;1.00;;;;;;5055932;28;20076;-77
2022/05/19 09:57:45;;;;;;;4.55;1.77;;;21.50;1.00;;;;;;5054681;28;20056;-76
2022/05/19 10:00:21;;;;;;;2.63;1.20;;;21.70;1.00;;;;;;5037973;28;20389;-75
2022/05/19 10:02:56;;;;;;;3.60;2.03;;;21.60;1.00;;;;;;5055146;28;20052;-76
2022/05/19 10:05:33;;;;;;;6.05;3.25;;;21.70;1.00;;;;;;5055639;28;20041;-75
2022/05/19 10:08:05;;;;;;;4.60;1.85;;;21.80;1.00;;;;;;5055575;28;20086;-76
2022/05/19 10:10:36;;;;;;;4.75;1.58;;;21.90;1.00;;;;;;5055443;28;20052;-76
2022/05/19 10:13:10;;;;;;;4.68;2.05;;;22.00;1.00;;;;;;5054879;28;20053;-77
2022/05/19 10:15:48;;;;;;;7.40;2.67;;;22.10;1.00;;;;;;5054913;28;20041;-75
2022/05/19 10:18:36;;;;;;;7.15;3.05;;;21.90;1.00;;;;;;5054958;28;20060;-76
2022/05/19 10:21:16;;;;;;;8.13;3.00;;;22.00;1.00;;;;;;5036992;28;20041;-76
2022/05/19 10:23:58;;;;;;;7.28;2.42;;;22.00;1.00;;;;;;5036686;28;20060;-75
2022/05/19 10:26:39;;;;;;;8.50;5.07;;;22.20;1.00;;;;;;5036003;28;20057;-76
2022/05/19 10:32:30;;;;;;;5.70;1.48;;;22.30;1.00;;;;;;5036978;28;20049;-76
2022/05/19 10:35:08;;;;;;;4.00;2.30;;;22.30;1.00;;;;;;5055073;28;20041;-77
2022/05/19 10:37:51;;;;;;;5.18;1.52;;;22.10;1.00;;;;;;5056153;28;20060;-77
2022/05/19 10:40:29;;;;;;;4.53;1.73;;;22.10;1.00;;;;;;5058007;28;20098;-75
2022/05/19 10:43:09;;;;;;;3.85;1.70;;;22.20;1.00;;;;;;5073253;28;20144;-75
2022/05/19 10:45:40;;;;;;;2.05;1.20;;;22.00;1.00;;;;;;5066879;28;20500;-76
2022/05/19 10:48:40;;;;;;;6.50;2.33;;;22.10;1.00;;;;;;5132286;27;20130;-76
2022/05/19 10:51:13;;;;;;;7.47;4.00;;;22.20;1.00;;;;;;5131921;27;20414;-76
2022/05/19 10:53:55;;;;;;;6.05;3.08;;;22.40;1.00;;;;;;5129919;28;20134;-76
2022/05/19 10:57:07;;;;;;;6.85;1.98;;;22.40;1.00;;;;;;5130097;28;20130;-76
2022/05/19 10:59:52;;;;;;;3.53;1.90;;;22.40;1.00;;;;;;5101441;27;20104;-77
2022/05/19 11:02:51;;;;;;;2.35;1.25;;;22.40;1.00;;;;;;5131013;27;20509;-77
2022/05/19 11:05:34;;;;;;;3.90;1.73;;;22.50;1.00;;;;;;5123595;28;20055;-77
2022/05/19 11:08:08;;;;;;;4.03;2.65;;;22.40;1.00;;;;;;5131617;27;20059;-75
2022/05/19 11:10:45;;;;;;;6.20;2.35;;;22.10;1.00;;;;;;5131569;27;20039;-78
2022/05/19 11:13:28;;;;;;;5.20;1.80;;;22.20;1.00;;;;;;5131358;27;20145;-77
2022/05/19 11:16:05;;;;;;;4.70;1.55;;;22.40;1.00;;;;;;5122199;27;20079;-75
2022/05/19 11:18:39;;;;;;;4.03;1.58;;;22.50;1.00;;;;;;5117972;28;20503;-77
2022/05/19 11:21:15;;;;;;;6.65;2.40;;;22.50;1.00;;;;;;5129976;27;20396;-77
2022/05/19 11:23:49;;;;;;;4.90;2.00;;;22.50;1.00;;;;;;5130809;27;20543;-77
2022/05/19 11:26:26;;;;;;;5.78;1.80;;;22.50;1.00;;;;;;5129531;27;20437;-77
2022/05/19 11:29:13;;;;;;;5.88;2.70;;;22.60;1.00;;;;;;5122162;27;20036;-76
2022/05/19 11:31:46;;;;;;;8.10;2.42;;;22.60;1.00;;;;;;5109460;28;20141;-78
2022/05/19 11:34:22;;;;;;;6.00;2.13;;;22.40;1.00;;;;;;5128118;28;20040;-77
2022/05/19 11:36:57;;;;;;;5.72;1.90;;;22.50;1.00;;;;;;5118658;27;20046;-77
2022/05/19 11:39:31;;;;;;;3.38;1.80;;;22.60;1.00;;;;;;5109596;28;20048;-75
2022/05/19 11:42:06;;;;;;;7.30;4.13;;;22.80;1.00;;;;;;5106536;28;20076;-75
2022/05/19 11:44:38;;;;;;;6.15;2.88;;;22.90;1.00;;;;;;5108078;28;20040;-75
2022/05/19 11:47:13;;;;;;;7.20;2.20;;;22.90;1.00;;;;;;5107863;28;20047;-75
2022/05/19 11:55:34;;;;;;;6.13;3.55;;;22.60;1.00;;;;;;5110198;28;20054;-76
2022/05/19 11:58:09;;;;;;;9.23;3.50;;;22.50;1.00;;;;;;5116298;28;20039;-76
2022/05/19 12:00:40;;;;;;;3.97;2.00;;;22.60;1.00;;;;;;5095257;28;20418;-77
2022/05/19 12:03:12;;;;;;;7.40;2.05;;;22.60;1.00;;;;;;5103921;28;20824;-78
2022/05/19 12:05:53;;;;;;;6.35;2.88;;;22.60;1.00;;;;;;5111886;28;20043;-77
2022/05/19 12:08:24;;;;;;;3.42;2.42;;;22.70;1.00;;;;;;5096119;28;20040;-77
2022/05/19 12:11:09;;;;;;;6.65;3.40;;;22.60;1.00;;;;;;5096700;28;20555;-77
2022/05/19 12:13:40;;;;;;;3.63;2.40;;;22.50;1.00;;;;;;5116370;28;20035;-77
2022/05/19 12:16:10;;;;;;;4.95;2.45;;;22.60;1.00;;;;;;5101155;28;20055;-77
2022/05/19 12:18:44;;;;;;;4.18;2.58;;;22.70;1.00;;;;;;5097374;28;20047;-77
2022/05/19 12:21:34;;;;;;;6.50;1.95;;;22.80;1.00;;;;;;5104932;28;20047;-78
2022/05/19 12:24:09;;;;;;;5.50;2.90;;;22.90;1.00;;;;;;5097156;28;20043;-78
2022/05/19 12:26:54;;;;;;;4.97;3.33;;;23.00;1.00;;;;;;5098069;28;20558;-79
2022/05/19 12:29:39;;;;;;;9.43;2.20;;;23.00;1.00;;;;;;5107320;28;20040;-77
2022/05/19 12:32:22;;;;;;;2.92;1.80;;;23.00;1.00;;;;;;5096983;28;20380;-76
2022/05/19 12:34:52;;;;;;;4.00;1.60;;;23.00;1.00;;;;;;5096775;28;20151;-78
2022/05/19 12:37:40;;;;;;;3.47;1.70;;;23.00;1.00;;;;;;5095336;28;20047;-77
2022/05/19 12:40:38;;;;;;;5.05;1.67;;;23.10;1.00;;;;;;5109118;28;20468;-77
2022/05/19 12:43:27;;;;;;;3.28;1.60;;;23.10;1.00;;;;;;5086977;28;20060;-76
2022/05/19 12:45:57;;;;;;;7.97;1.85;;;23.00;1.00;;;;;;5094872;28;20047;-76
2022/05/19 12:48:50;;;;;;;4.70;1.70;;;22.90;1.00;;;;;;5095591;28;20040;-75
2022/05/19 12:51:46;;;;;;;6.05;2.53;;;22.90;1.00;;;;;;5095538;28;20047;-77
2022/05/19 12:54:13;;;;;;;11.32;6.97;;;23.00;1.00;;;;;;5095082;28;20176;-75
2022/05/19 12:57:23;;;;;;;4.63;2.17;;;23.20;1.00;;;;;;5109977;28;20355;-76
2022/05/19 13:00:07;;;;;;;3.60;1.80;;;23.30;1.00;;;;;;5094902;28;20524;-77
2022/05/19 13:02:42;;;;;;;6.00;2.03;;;23.20;1.00;;;;;;5113183;28;20028;-76
2022/05/19 13:05:19;;;;;;;6.30;2.20;;;23.20;1.00;;;;;;5113679;28;20507;-77
2022/05/19 13:07:52;;;;;;;4.35;1.45;;;23.20;1.00;;;;;;5094557;28;20036;-76
2022/05/19 13:10:22;;;;;;;5.30;3.38;;;23.30;1.00;;;;;;5092597;28;20054;-76
2022/05/19 13:13:05;;;;;;;5.78;2.22;;;23.20;1.00;;;;;;5094328;28;20043;-77
2022/05/19 13:15:46;;;;;;;7.40;2.65;;;23.20;1.00;;;;;;5101702;28;20403;-78
2022/05/19 13:18:15;;;;;;;4.10;2.67;;;23.10;1.00;;;;;;5114869;28;20039;-76
2022/05/19 13:20:43;;;;;;;7.40;4.55;;;23.00;1.00;;;;;;5115201;28;20483;-76
2022/05/19 13:23:22;;;;;;;6.85;4.22;;;23.10;1.00;;;;;;5114707;28;20031;-75
2022/05/19 13:25:52;;;;;;;7.78;2.88;;;23.20;1.00;;;;;;5113235;28;20046;-76
2022/05/19 13:31:22;;;;;;;4.75;1.50;;;23.30;1.00;;;;;;5104715;28;20044;-76
2022/05/19 13:33:53;;;;;;;9.18;5.93;;;23.20;1.00;;;;;;5105327;28;20048;-76
2022/05/19 13:36:30;;;;;;;5.18;3.08;;;23.30;1.00;;;;;;5091616;28;20040;-75
2022/05/19 13:39:09;;;;;;;3.85;1.80;;;23.30;1.00;;;;;;5096454;28;20043;-76
2022/05/19 13:41:43;;;;;;;4.32;2.05;;;23.20;1.00;;;;;;5114071;28;20043;-77
2022/05/19 13:44:17;;;;;;;3.13;1.65;;;23.20;1.00;;;;;;5107646;28;20503;-77